createdAt,value
2019-01-17T00:00:44.103Z,6.14
2019-01-17T00:01:53.485Z,6.07
2019-01-17T00:02:53.923Z,6.05
2019-01-17T00:03:46.297Z,6.04
2019-01-17T00:04:33.096Z,6.07
2019-01-17T00:05:27.957Z,6.05
2019-01-17T00:06:35.499Z,6.11
2019-01-17T00:07:21.652Z,6.12
2019-01-17T00:08:19.120Z,6.11
2019-01-17T00:09:16.695Z,6.04
2019-01-17T00:10:17.483Z,6.12
2019-01-17T00:11:12.156Z,6.11
2019-01-17T00:11:55.075Z,6.13
2019-01-17T00:12:52.502Z,6.06
2019-01-17T00:13:47.136Z,6.03
2019-01-17T00:14:40.309Z,6.01
2019-01-17T00:15:33.213Z,6.03
2019-01-17T00:16:27.636Z,6.01
2019-01-17T00:17:20.817Z,6.01
2019-01-17T00:18:13.928Z,6.06
2019-01-17T00:19:12.970Z,6.11
2019-01-17T00:20:06.472Z,6.08
2019-01-17T00:21:00.854Z,6.02
2019-01-17T00:22:01.577Z,6.06
2019-01-17T00:22:56.959Z,6.03
2019-01-17T00:23:46.131Z,6.02
2019-01-17T00:24:30.411Z,6.09
2019-01-17T00:25:25.270Z,6.07
2019-01-17T00:26:37.913Z,6.08
2019-01-17T00:27:29.788Z,6.02
2019-01-17T00:28:15.627Z,5.96
2019-01-17T00:29:08.704Z,6.02
2019-01-17T00:29:57.106Z,5.94
2019-01-17T00:30:54.152Z,5.95
2019-01-17T00:31:57.280Z,5.99
2019-01-17T00:32:54.234Z,5.92
2019-01-17T00:33:50.681Z,5.94
2019-01-17T00:35:03.280Z,5.94
2019-01-17T00:35:53.857Z,5.97
2019-01-17T00:36:40.863Z,6.00
2019-01-17T00:37:33.844Z,6.04
2019-01-17T00:38:32.292Z,6.02
2019-01-17T00:39:29.017Z,5.95
2019-01-17T00:40:27.267Z,5.95
2019-01-17T00:41:24.496Z,5.95
2019-01-17T00:42:17.868Z,5.90
2019-01-17T00:43:01.476Z,5.93
2019-01-17T00:43:58.959Z,6.00
2019-01-17T00:44:56.055Z,5.93
2019-01-17T00:46:02.638Z,5.87
2019-01-17T00:47:03.007Z,5.82
2019-01-17T00:48:09.573Z,5.90
2019-01-17T00:49:07.177Z,5.84
2019-01-17T00:50:11.847Z,5.85
2019-01-17T00:51:13.193Z,5.81
2019-01-17T00:52:17.707Z,5.78
2019-01-17T00:53:10.390Z,5.78
2019-01-17T00:54:13.586Z,5.79
2019-01-17T00:55:03.726Z,5.78
2019-01-17T00:56:13.340Z,5.87
2019-01-17T00:57:08.209Z,5.82
2019-01-17T00:58:13.709Z,5.80
2019-01-17T00:59:23.105Z,5.82
2019-01-17T01:00:23.421Z,5.88
2019-01-17T01:01:17.813Z,5.88
2019-01-17T01:02:05.448Z,5.90
2019-01-17T01:03:09.035Z,5.81
2019-01-17T01:04:03.689Z,5.85
2019-01-17T01:05:00.349Z,5.88
2019-01-17T01:05:53.637Z,5.96
2019-01-17T01:06:45.880Z,5.89
2019-01-17T01:07:40.554Z,5.85
2019-01-17T01:08:33.643Z,5.85
2019-01-17T01:09:18.713Z,5.87
2019-01-17T01:10:11.785Z,5.89
2019-01-17T01:11:12.306Z,5.88
2019-01-17T01:12:18.833Z,5.91
2019-01-17T01:13:15.971Z,5.91
2019-01-17T01:14:13.121Z,5.91
2019-01-17T01:15:06.318Z,5.89
2019-01-17T01:16:05.221Z,5.91
2019-01-17T01:17:19.265Z,5.90
2019-01-17T01:18:12.384Z,5.87
2019-01-17T01:19:13.102Z,5.86
2019-01-17T01:20:05.945Z,5.83
2019-01-17T01:21:03.251Z,5.80
2019-01-17T01:22:00.751Z,5.81
2019-01-17T01:22:57.995Z,5.86
2019-01-17T01:23:46.513Z,5.84
2019-01-17T01:24:46.865Z,5.83
2019-01-17T01:25:50.741Z,5.80
2019-01-17T01:26:51.310Z,5.84
2019-01-17T01:27:45.744Z,5.89
2019-01-17T01:28:46.563Z,5.84
2019-01-17T01:29:52.860Z,5.83
2019-01-17T01:30:56.080Z,5.88
2019-01-17T01:31:40.489Z,5.85
2019-01-17T01:32:30.522Z,5.91
2019-01-17T01:33:17.582Z,5.94
2019-01-17T01:34:11.969Z,5.87
2019-01-17T01:34:55.202Z,5.94
2019-01-17T01:35:52.418Z,5.94
2019-01-17T01:37:04.773Z,5.88
2019-01-17T01:37:59.338Z,5.93
2019-01-17T01:38:59.649Z,5.81
2019-01-17T01:39:52.525Z,5.78
2019-01-17T01:40:44.235Z,5.81
2019-01-17T01:41:38.636Z,5.80
2019-01-17T01:42:37.003Z,5.80
2019-01-17T01:43:34.655Z,5.80
2019-01-17T01:44:28.520Z,5.83
2019-01-17T01:45:13.328Z,5.79
2019-01-17T01:46:13.833Z,5.83
2019-01-17T01:47:08.209Z,5.81
2019-01-17T01:48:11.573Z,5.83
2019-01-17T01:48:55.845Z,5.86
2019-01-17T01:50:08.567Z,5.81
2019-01-17T01:51:02.985Z,5.87
2019-01-17T01:52:09.651Z,5.87
2019-01-17T01:53:04.069Z,5.84
2019-01-17T01:53:39.988Z,5.91
2019-01-17T01:54:21.842Z,5.83
2019-01-17T01:54:52.835Z,5.83
2019-01-17T01:55:28.284Z,5.85
2019-01-17T01:56:04.027Z,5.82
2019-01-17T01:56:39.493Z,5.92
2019-01-17T01:57:14.926Z,5.85
2019-01-17T01:57:50.350Z,5.87
2019-01-17T01:58:25.774Z,5.90
2019-01-17T01:59:01.533Z,5.89
2019-01-17T01:59:37.023Z,5.90
2019-01-17T02:00:12.520Z,5.87
2019-01-17T02:00:48.210Z,5.87
2019-01-17T02:01:23.904Z,5.92
2019-01-17T02:01:59.328Z,5.87
2019-01-17T02:02:34.865Z,5.88
2019-01-17T02:03:10.345Z,5.85
2019-01-17T02:03:45.798Z,5.82
2019-01-17T02:04:21.351Z,5.84
2019-01-17T02:04:56.894Z,5.85
2019-01-17T02:05:32.323Z,5.81
2019-01-17T02:06:07.789Z,5.80
2019-01-17T02:06:43.618Z,5.79
2019-01-17T02:07:19.048Z,5.79
2019-01-17T02:07:54.484Z,5.85
2019-01-17T02:08:29.900Z,5.82
2019-01-17T02:09:07.771Z,5.82
2019-01-17T02:09:43.235Z,5.77
2019-01-17T02:10:19.036Z,5.87
2019-01-17T02:10:54.768Z,5.81
2019-01-17T02:11:30.622Z,5.84
2019-01-17T02:12:06.094Z,5.92
2019-01-17T02:12:41.542Z,5.81
2019-01-17T02:13:17.331Z,5.81
2019-01-17T02:13:53.543Z,5.79
2019-01-17T02:14:29.261Z,5.84
2019-01-17T02:15:04.823Z,5.81
2019-01-17T02:15:40.265Z,5.79
2019-01-17T02:16:15.804Z,5.89
2019-01-17T02:16:51.633Z,5.88
2019-01-17T02:17:27.134Z,5.86
2019-01-17T02:18:02.573Z,5.83
2019-01-17T02:18:38.552Z,5.85
2019-01-17T02:19:13.978Z,5.85
2019-01-17T02:19:49.665Z,5.85
2019-01-17T02:20:25.346Z,5.87
2019-01-17T02:21:00.765Z,5.87
2019-01-17T02:21:36.333Z,5.89
2019-01-17T02:22:11.818Z,5.93
2019-01-17T02:22:47.262Z,5.87
2019-01-17T02:23:22.735Z,5.85
2019-01-17T02:23:58.184Z,5.87
2019-01-17T02:24:33.859Z,5.86
2019-01-17T02:25:09.526Z,5.84
2019-01-17T02:25:44.970Z,5.81
2019-01-17T02:26:20.522Z,5.79
2019-01-17T02:26:55.969Z,5.79
2019-01-17T02:27:31.672Z,5.83
2019-01-17T02:28:07.134Z,5.86
2019-01-17T02:28:42.670Z,5.87
2019-01-17T02:29:18.132Z,5.88
2019-01-17T02:29:53.830Z,5.84
2019-01-17T02:30:29.242Z,5.86
2019-01-17T02:31:04.693Z,5.86
2019-01-17T02:31:40.161Z,5.86
2019-01-17T02:32:15.711Z,5.85
2019-01-17T02:32:51.402Z,5.85
2019-01-17T02:33:26.826Z,5.88
2019-01-17T02:34:02.268Z,5.90
2019-01-17T02:34:37.949Z,5.87
2019-01-17T02:35:13.686Z,5.85
2019-01-17T02:35:49.139Z,5.84
2019-01-17T02:36:24.542Z,5.92
2019-01-17T02:37:00.270Z,5.92
2019-01-17T02:37:35.995Z,5.88
2019-01-17T02:38:12.091Z,5.88
2019-01-17T02:38:47.868Z,5.88
2019-01-17T02:39:23.285Z,5.84
2019-01-17T02:39:58.741Z,5.87
2019-01-17T02:40:34.165Z,5.87
2019-01-17T02:41:09.618Z,5.89
2019-01-17T02:41:45.309Z,5.95
2019-01-17T02:42:21.042Z,5.93
2019-01-17T02:42:56.885Z,5.89
2019-01-17T02:43:32.266Z,5.95
2019-01-17T02:44:07.717Z,5.92
2019-01-17T02:44:43.139Z,5.88
2019-01-17T02:45:18.558Z,5.86
2019-01-17T02:45:54.051Z,5.88
2019-01-17T02:46:29.485Z,5.87
2019-01-17T02:47:05.065Z,5.88
2019-01-17T02:47:40.825Z,5.89
2019-01-17T02:48:16.270Z,5.88
2019-01-17T02:48:51.683Z,5.87
2019-01-17T02:49:27.112Z,5.89
2019-01-17T02:50:02.552Z,5.87
2019-01-17T02:50:37.987Z,5.95
2019-01-17T02:51:13.443Z,6.02
2019-01-17T02:51:48.874Z,5.92
2019-01-17T02:52:24.309Z,6.00
2019-01-17T02:52:59.748Z,5.95
2019-01-17T02:53:35.219Z,5.91
2019-01-17T02:54:10.654Z,5.93
2019-01-17T02:54:46.095Z,5.91
2019-01-17T02:55:21.532Z,5.88
2019-01-17T02:55:57.198Z,5.89
2019-01-17T02:56:32.756Z,5.92
2019-01-17T02:57:08.213Z,5.94
2019-01-17T02:57:43.759Z,5.89
2019-01-17T02:58:19.167Z,5.86
2019-01-17T02:58:54.856Z,5.92
2019-01-17T02:59:30.315Z,5.88
2019-01-17T03:00:09.125Z,5.93
2019-01-17T03:00:44.566Z,5.90
2019-01-17T03:01:19.984Z,5.92
2019-01-17T03:01:55.393Z,5.95
2019-01-17T03:02:30.849Z,5.93
2019-01-17T03:03:06.310Z,6.00
2019-01-17T03:03:41.750Z,6.06
2019-01-17T03:04:17.430Z,5.98
2019-01-17T03:04:52.879Z,5.99
2019-01-17T03:05:28.307Z,5.95
2019-01-17T03:06:03.773Z,5.94
2019-01-17T03:06:39.529Z,5.94
2019-01-17T03:07:15.058Z,5.93
2019-01-17T03:07:50.608Z,5.96
2019-01-17T03:08:26.025Z,5.99
2019-01-17T03:09:01.458Z,5.95
2019-01-17T03:09:36.915Z,5.96
2019-01-17T03:10:18.884Z,5.94
2019-01-17T03:10:54.306Z,6.01
2019-01-17T03:11:29.714Z,5.98
2019-01-17T03:12:05.148Z,5.92
2019-01-17T03:12:40.617Z,5.93
2019-01-17T03:13:16.305Z,6.00
2019-01-17T03:13:51.990Z,5.96
2019-01-17T03:14:27.390Z,5.94
2019-01-17T03:15:03.029Z,6.02
2019-01-17T03:15:38.519Z,5.94
2019-01-17T03:16:14.314Z,5.98
2019-01-17T03:16:50.264Z,5.96
2019-01-17T03:17:26.106Z,5.98
2019-01-17T03:18:01.867Z,6.00
2019-01-17T03:18:37.295Z,5.95
2019-01-17T03:19:12.777Z,5.96
2019-01-17T03:19:48.455Z,5.96
2019-01-17T03:20:24.138Z,5.96
2019-01-17T03:20:59.836Z,5.98
2019-01-17T03:21:35.719Z,5.97
2019-01-17T03:22:11.170Z,5.97
2019-01-17T03:22:46.901Z,5.99
2019-01-17T03:23:22.330Z,6.02
2019-01-17T03:23:57.794Z,5.95
2019-01-17T03:24:33.342Z,5.98
2019-01-17T03:25:09.420Z,5.99
2019-01-17T03:25:44.840Z,5.99
2019-01-17T03:26:20.278Z,6.00
2019-01-17T03:26:55.702Z,6.02
2019-01-17T03:27:31.191Z,6.05
2019-01-17T03:28:06.990Z,6.04
2019-01-17T03:28:42.752Z,5.93
2019-01-17T03:29:18.166Z,5.96
2019-01-17T03:29:54.006Z,5.99
2019-01-17T03:30:29.685Z,6.01
2019-01-17T03:31:05.190Z,5.98
2019-01-17T03:31:40.720Z,5.93
2019-01-17T03:32:16.404Z,6.02
2019-01-17T03:32:51.915Z,5.97
2019-01-17T03:33:27.394Z,5.93
2019-01-17T03:34:03.134Z,5.99
2019-01-17T03:34:38.970Z,5.96
2019-01-17T03:35:14.839Z,5.99
2019-01-17T03:35:50.246Z,6.06
2019-01-17T03:36:25.667Z,6.03
2019-01-17T03:37:01.154Z,6.02
2019-01-17T03:37:36.651Z,6.06
2019-01-17T03:38:12.127Z,6.03
2019-01-17T03:38:47.588Z,6.04
2019-01-17T03:39:23.143Z,5.97
2019-01-17T03:39:58.575Z,5.97
2019-01-17T03:40:34.284Z,5.98
2019-01-17T03:41:09.765Z,5.95
2019-01-17T03:41:45.199Z,6.03
2019-01-17T03:42:20.677Z,6.02
2019-01-17T03:42:56.102Z,6.05
2019-01-17T03:43:31.533Z,6.00
2019-01-17T03:44:06.989Z,5.98
2019-01-17T03:44:42.464Z,6.07
2019-01-17T03:45:18.209Z,6.07
2019-01-17T03:45:53.652Z,6.09
2019-01-17T03:46:29.079Z,6.04
2019-01-17T03:47:04.635Z,6.04
2019-01-17T03:47:40.140Z,6.06
2019-01-17T03:48:15.866Z,6.03
2019-01-17T03:48:51.620Z,6.04
2019-01-17T03:49:27.048Z,6.07
2019-01-17T03:50:02.819Z,6.05
2019-01-17T03:50:38.562Z,6.05
2019-01-17T03:51:14.060Z,6.00
2019-01-17T03:51:49.772Z,6.06
2019-01-17T03:52:25.441Z,6.08
2019-01-17T03:53:00.889Z,6.10
2019-01-17T03:53:36.615Z,6.12
2019-01-17T03:54:12.059Z,6.06
2019-01-17T03:54:51.908Z,6.08
2019-01-17T03:55:25.153Z,6.13
2019-01-17T03:56:01.129Z,6.11
2019-01-17T03:56:36.756Z,6.13
2019-01-17T03:57:16.085Z,6.09
2019-01-17T03:57:51.525Z,6.13
2019-01-17T03:58:27.042Z,6.16
2019-01-17T03:59:02.514Z,6.16
2019-01-17T03:59:38.204Z,6.16
2019-01-17T04:00:16.383Z,6.16
2019-01-17T04:00:52.059Z,6.18
2019-01-17T04:01:27.482Z,6.16
2019-01-17T04:02:02.918Z,6.16
2019-01-17T04:02:38.365Z,6.21
2019-01-17T04:03:13.821Z,6.21
2019-01-17T04:03:49.492Z,6.20
2019-01-17T04:04:24.904Z,6.17
2019-01-17T04:05:00.670Z,6.14
2019-01-17T04:05:36.241Z,6.11
2019-01-17T04:06:11.730Z,6.21
2019-01-17T04:06:47.172Z,6.19
2019-01-17T04:07:22.598Z,6.12
2019-01-17T04:07:58.169Z,6.10
2019-01-17T04:08:33.618Z,6.13
2019-01-17T04:09:09.331Z,6.12
2019-01-17T04:09:44.782Z,6.13
2019-01-17T04:10:20.192Z,6.18
2019-01-17T04:10:55.856Z,6.21
2019-01-17T04:11:31.293Z,6.16
2019-01-17T04:12:06.787Z,6.15
2019-01-17T04:12:42.279Z,6.16
2019-01-17T04:13:17.710Z,6.24
2019-01-17T04:13:53.138Z,6.27
2019-01-17T04:14:28.573Z,6.24
2019-01-17T04:15:04.351Z,6.26
2019-01-17T04:15:39.810Z,6.24
2019-01-17T04:16:15.244Z,6.31
2019-01-17T04:16:50.707Z,6.27
2019-01-17T04:17:26.118Z,6.29
2019-01-17T04:18:01.588Z,6.23
2019-01-17T04:18:37.056Z,6.17
2019-01-17T04:19:12.532Z,6.18
2019-01-17T04:19:47.950Z,6.18
2019-01-17T04:20:23.381Z,6.19
2019-01-17T04:20:58.794Z,6.29
2019-01-17T04:21:34.225Z,6.30
2019-01-17T04:22:09.936Z,6.25
2019-01-17T04:22:45.399Z,6.32
2019-01-17T04:23:20.874Z,6.23
2019-01-17T04:23:56.529Z,6.24
2019-01-17T04:24:32.076Z,6.24
2019-01-17T04:25:08.705Z,6.24
2019-01-17T04:25:44.309Z,6.24
2019-01-17T04:26:19.758Z,6.26
2019-01-17T04:26:55.175Z,6.26
2019-01-17T04:27:30.585Z,6.21
2019-01-17T04:28:06.311Z,6.21
2019-01-17T04:28:41.748Z,6.31
2019-01-17T04:29:17.199Z,6.24
2019-01-17T04:29:52.626Z,6.21
2019-01-17T04:30:28.167Z,6.21
2019-01-17T04:31:03.647Z,6.21
2019-01-17T04:31:39.129Z,6.19
2019-01-17T04:32:14.830Z,6.23
2019-01-17T04:32:51.039Z,6.28
2019-01-17T04:33:26.792Z,6.25
2019-01-17T04:34:02.264Z,6.22
2019-01-17T04:34:38.102Z,6.26
2019-01-17T04:35:13.549Z,6.23
2019-01-17T04:35:49.287Z,6.23
2019-01-17T04:36:24.736Z,6.22
2019-01-17T04:37:00.277Z,6.22
2019-01-17T04:37:36.072Z,6.31
2019-01-17T04:38:12.102Z,6.28
2019-01-17T04:38:47.887Z,6.25
2019-01-17T04:39:23.322Z,6.23
2019-01-17T04:39:59.005Z,6.27
2019-01-17T04:40:34.473Z,6.34
2019-01-17T04:41:09.988Z,6.31
2019-01-17T04:41:45.439Z,6.32
2019-01-17T04:42:21.210Z,6.45
2019-01-17T04:42:56.630Z,6.40
2019-01-17T04:43:32.122Z,6.40
2019-01-17T04:44:07.595Z,6.34
2019-01-17T04:44:43.275Z,6.32
2019-01-17T04:45:19.027Z,6.30
2019-01-17T04:45:54.456Z,6.29
2019-01-17T04:46:29.935Z,6.32
2019-01-17T04:47:05.431Z,6.32
2019-01-17T04:47:40.989Z,6.29
2019-01-17T04:48:17.098Z,6.32
2019-01-17T04:48:52.535Z,6.39
2019-01-17T04:49:27.963Z,6.34
2019-01-17T04:50:03.456Z,6.39
2019-01-17T04:50:38.908Z,6.36
2019-01-17T04:51:14.351Z,6.42
2019-01-17T04:51:49.795Z,6.35
2019-01-17T04:52:25.208Z,6.37
2019-01-17T04:53:00.651Z,6.33
2019-01-17T04:53:36.087Z,6.35
2019-01-17T04:54:11.523Z,6.40
2019-01-17T04:54:46.956Z,6.34
2019-01-17T04:55:22.672Z,6.25
2019-01-17T04:55:58.086Z,6.35
2019-01-17T04:56:33.559Z,6.27
2019-01-17T04:57:09.106Z,6.27
2019-01-17T04:57:44.816Z,6.27
2019-01-17T04:58:20.420Z,6.28
2019-01-17T04:58:55.882Z,6.26
2019-01-17T04:59:31.348Z,6.26
2019-01-17T05:00:09.457Z,6.30
2019-01-17T05:00:44.881Z,6.31
2019-01-17T05:01:20.323Z,6.33
2019-01-17T05:01:55.871Z,6.32
2019-01-17T05:02:31.289Z,6.27
2019-01-17T05:03:07.080Z,6.39
2019-01-17T05:03:42.539Z,6.36
2019-01-17T05:04:17.963Z,6.29
2019-01-17T05:04:53.485Z,6.32
2019-01-17T05:05:29.230Z,6.24
2019-01-17T05:06:05.001Z,6.26
2019-01-17T05:06:40.484Z,6.25
2019-01-17T05:07:15.894Z,6.25
2019-01-17T05:07:51.572Z,6.39
2019-01-17T05:08:27.016Z,6.35
2019-01-17T05:09:02.482Z,6.35
2019-01-17T05:09:37.952Z,6.37
2019-01-17T05:10:13.988Z,6.29
2019-01-17T05:10:49.484Z,6.35
2019-01-17T05:11:24.939Z,6.40
2019-01-17T05:12:00.618Z,6.35
2019-01-17T05:12:36.280Z,6.33
2019-01-17T05:13:11.725Z,6.29
2019-01-17T05:13:47.191Z,6.27
2019-01-17T05:14:22.869Z,6.26
2019-01-17T05:14:58.280Z,6.22
2019-01-17T05:15:34.098Z,6.18
2019-01-17T05:16:09.602Z,6.12
2019-01-17T05:16:44.996Z,6.12
2019-01-17T05:17:20.955Z,6.12
2019-01-17T05:17:56.985Z,6.23
2019-01-17T05:18:32.462Z,6.27
2019-01-17T05:19:08.012Z,6.26
2019-01-17T05:19:43.772Z,6.23
2019-01-17T05:20:19.207Z,6.17
2019-01-17T05:20:54.963Z,6.17
2019-01-17T05:21:30.374Z,6.15
2019-01-17T05:22:05.894Z,6.11
2019-01-17T05:22:41.543Z,6.11
2019-01-17T05:23:16.995Z,6.18
2019-01-17T05:23:52.462Z,6.15
2019-01-17T05:24:27.939Z,6.08
2019-01-17T05:25:03.406Z,6.11
2019-01-17T05:25:39.592Z,6.07
2019-01-17T05:26:15.030Z,6.07
2019-01-17T05:26:50.520Z,6.06
2019-01-17T05:27:25.953Z,6.01
2019-01-17T05:28:01.404Z,6.18
2019-01-17T05:28:36.845Z,6.11
2019-01-17T05:29:12.302Z,6.09
2019-01-17T05:29:47.762Z,6.14
2019-01-17T05:30:23.194Z,6.10
2019-01-17T05:30:58.906Z,6.08
2019-01-17T05:31:34.351Z,6.09
2019-01-17T05:32:09.794Z,6.05
2019-01-17T05:32:45.488Z,5.99
2019-01-17T05:33:20.905Z,5.99
2019-01-17T05:33:56.734Z,6.03
2019-01-17T05:34:38.990Z,6.02
2019-01-17T05:35:09.678Z,6.00
2019-01-17T05:35:45.549Z,6.02
2019-01-17T05:36:21.296Z,6.03
2019-01-17T05:36:56.721Z,6.04
2019-01-17T05:37:32.142Z,5.99
2019-01-17T05:38:07.662Z,6.02
2019-01-17T05:38:43.399Z,6.11
2019-01-17T05:39:18.834Z,6.10
2019-01-17T05:39:54.255Z,6.13
2019-01-17T05:40:29.956Z,6.18
2019-01-17T05:41:05.596Z,6.16
2019-01-17T05:41:41.094Z,6.12
2019-01-17T05:42:16.508Z,6.17
2019-01-17T05:42:52.222Z,6.17
2019-01-17T05:43:27.663Z,6.14
2019-01-17T05:44:03.119Z,6.13
2019-01-17T05:44:38.582Z,6.14
2019-01-17T05:45:14.877Z,6.09
2019-01-17T05:45:50.380Z,6.11
2019-01-17T05:46:26.162Z,6.08
2019-01-17T05:47:01.607Z,6.18
2019-01-17T05:47:37.091Z,6.12
2019-01-17T05:48:12.511Z,6.17
2019-01-17T05:48:47.942Z,6.09
2019-01-17T05:49:23.404Z,6.06
2019-01-17T05:49:58.952Z,6.03
2019-01-17T05:50:34.434Z,6.02
2019-01-17T05:51:09.891Z,6.13
2019-01-17T05:51:45.332Z,6.14
2019-01-17T05:52:20.754Z,6.08
2019-01-17T05:52:56.269Z,6.10
2019-01-17T05:53:32.298Z,6.07
2019-01-17T05:54:08.986Z,6.04
2019-01-17T05:54:44.462Z,6.12
2019-01-17T05:55:20.439Z,6.13
2019-01-17T05:55:55.999Z,6.06
2019-01-17T05:56:31.696Z,6.10
2019-01-17T05:57:07.422Z,6.07
2019-01-17T05:57:42.834Z,6.07
2019-01-17T05:58:18.289Z,6.04
2019-01-17T05:58:53.726Z,6.05
2019-01-17T05:59:29.232Z,5.99
2019-01-17T06:00:06.233Z,6.07
2019-01-17T06:00:41.661Z,6.02
2019-01-17T06:01:17.363Z,5.98
2019-01-17T06:01:53.064Z,6.01
2019-01-17T06:02:29.098Z,6.02
2019-01-17T06:03:04.560Z,5.98
2019-01-17T06:03:40.296Z,5.96
2019-01-17T06:04:15.760Z,5.99
2019-01-17T06:04:51.223Z,5.98
2019-01-17T06:05:26.659Z,5.94
2019-01-17T06:06:02.117Z,5.97
2019-01-17T06:06:37.811Z,6.02
2019-01-17T06:07:13.249Z,6.04
2019-01-17T06:07:48.658Z,6.07
2019-01-17T06:08:24.070Z,6.03
2019-01-17T06:08:59.637Z,5.98
2019-01-17T06:09:35.181Z,6.07
2019-01-17T06:10:12.237Z,6.02
2019-01-17T06:10:47.686Z,6.05
2019-01-17T06:11:23.108Z,5.95
2019-01-17T06:11:58.541Z,5.92
2019-01-17T06:12:34.020Z,5.95
2019-01-17T06:13:09.633Z,5.96
2019-01-17T06:13:45.093Z,5.91
2019-01-17T06:14:20.597Z,5.92
2019-01-17T06:14:56.393Z,6.01
2019-01-17T06:15:32.189Z,5.93
2019-01-17T06:16:07.760Z,5.88
2019-01-17T06:16:43.238Z,6.04
2019-01-17T06:17:18.683Z,6.11
2019-01-17T06:17:54.118Z,6.06
2019-01-17T06:18:29.871Z,6.04
2019-01-17T06:19:05.503Z,5.92
2019-01-17T06:19:41.356Z,5.95
2019-01-17T06:20:17.492Z,5.99
2019-01-17T06:20:52.914Z,5.89
2019-01-17T06:21:28.351Z,5.85
2019-01-17T06:22:04.150Z,5.84
2019-01-17T06:22:39.627Z,5.88
2019-01-17T06:23:15.195Z,5.83
2019-01-17T06:23:50.632Z,5.91
2019-01-17T06:24:26.077Z,5.84
2019-01-17T06:25:01.794Z,5.80
2019-01-17T06:25:37.361Z,5.76
2019-01-17T06:26:13.440Z,5.85
2019-01-17T06:26:49.115Z,5.92
2019-01-17T06:27:24.546Z,5.93
2019-01-17T06:27:59.988Z,5.83
2019-01-17T06:28:35.695Z,5.87
2019-01-17T06:29:11.407Z,5.85
2019-01-17T06:29:46.887Z,5.84
2019-01-17T06:30:22.320Z,5.83
2019-01-17T06:30:57.838Z,5.95
2019-01-17T06:31:33.572Z,5.96
2019-01-17T06:32:10.011Z,5.99
2019-01-17T06:32:45.693Z,5.90
2019-01-17T06:33:22.152Z,5.77
2019-01-17T06:33:57.569Z,5.79
2019-01-17T06:34:33.627Z,5.76
2019-01-17T06:35:09.686Z,5.79
2019-01-17T06:35:45.149Z,5.77
2019-01-17T06:36:20.876Z,5.79
2019-01-17T06:36:56.572Z,5.75
2019-01-17T06:37:32.004Z,5.67
2019-01-17T06:38:07.472Z,5.65
2019-01-17T06:38:43.206Z,5.67
2019-01-17T06:39:18.648Z,5.71
2019-01-17T06:39:54.080Z,5.63
2019-01-17T06:40:33.815Z,5.76
2019-01-17T06:41:09.285Z,5.66
2019-01-17T06:41:45.004Z,5.66
2019-01-17T06:42:20.481Z,5.72
2019-01-17T06:42:56.193Z,5.62
2019-01-17T06:43:31.647Z,5.66
2019-01-17T06:44:07.213Z,5.63
2019-01-17T06:44:42.689Z,5.53
2019-01-17T06:45:18.247Z,5.53
2019-01-17T06:45:53.928Z,5.57
2019-01-17T06:46:29.714Z,5.60
2019-01-17T06:47:05.235Z,5.67
2019-01-17T06:47:41.300Z,5.59
2019-01-17T06:48:16.752Z,5.61
2019-01-17T06:48:52.205Z,5.67
2019-01-17T06:49:27.635Z,5.58
2019-01-17T06:50:03.095Z,5.56
2019-01-17T06:50:38.680Z,5.59
2019-01-17T06:51:14.525Z,5.72
2019-01-17T06:51:50.888Z,5.69
2019-01-17T06:52:26.331Z,5.73
2019-01-17T06:53:01.774Z,5.71
2019-01-17T06:53:37.228Z,5.77
2019-01-17T06:54:12.757Z,5.69
2019-01-17T06:54:48.176Z,5.70
2019-01-17T06:55:23.877Z,5.77
2019-01-17T06:55:59.298Z,5.75
2019-01-17T06:56:34.820Z,5.72
2019-01-17T06:57:10.298Z,5.71
2019-01-17T06:57:45.724Z,5.70
2019-01-17T06:58:21.163Z,5.76
2019-01-17T06:58:56.591Z,5.73
2019-01-17T06:59:32.310Z,5.74
2019-01-17T07:00:09.654Z,5.61
2019-01-17T07:00:45.208Z,5.64
2019-01-17T07:01:20.900Z,5.73
2019-01-17T07:01:56.632Z,5.72
2019-01-17T07:02:32.136Z,5.64
2019-01-17T07:03:07.597Z,5.61
2019-01-17T07:03:43.144Z,5.60
2019-01-17T07:04:18.568Z,5.55
2019-01-17T07:04:54.028Z,5.54
2019-01-17T07:05:29.452Z,5.51
2019-01-17T07:06:05.111Z,5.58
2019-01-17T07:06:40.569Z,5.68
2019-01-17T07:07:16.002Z,5.75
2019-01-17T07:07:51.678Z,5.68
2019-01-17T07:08:27.385Z,5.67
2019-01-17T07:09:02.874Z,5.63
2019-01-17T07:09:38.362Z,5.61
2019-01-17T07:10:15.785Z,5.54
2019-01-17T07:10:51.502Z,5.60
2019-01-17T07:11:26.949Z,5.60
2019-01-17T07:12:02.675Z,5.60
2019-01-17T07:12:38.179Z,5.54
2019-01-17T07:13:13.925Z,5.50
2019-01-17T07:13:49.350Z,5.48
2019-01-17T07:14:24.768Z,5.47
2019-01-17T07:15:00.195Z,5.43
2019-01-17T07:15:36.052Z,5.53
2019-01-17T07:16:11.561Z,5.57
2019-01-17T07:16:47.585Z,5.56
2019-01-17T07:17:23.062Z,5.63
2019-01-17T07:17:58.739Z,5.69
2019-01-17T07:18:34.228Z,5.59
2019-01-17T07:19:09.978Z,5.61
2019-01-17T07:19:45.755Z,5.67
2019-01-17T07:20:21.170Z,5.69
2019-01-17T07:20:56.657Z,5.74
2019-01-17T07:21:32.064Z,5.76
2019-01-17T07:22:07.550Z,5.72
2019-01-17T07:22:43.077Z,5.72
2019-01-17T07:23:18.497Z,5.66
2019-01-17T07:23:54.162Z,5.70
2019-01-17T07:24:29.593Z,5.60
2019-01-17T07:25:06.062Z,5.57
2019-01-17T07:25:41.961Z,5.51
2019-01-17T07:26:17.397Z,5.51
2019-01-17T07:26:52.817Z,5.62
2019-01-17T07:27:28.251Z,5.53
2019-01-17T07:28:04.034Z,5.62
2019-01-17T07:28:39.544Z,5.67
2019-01-17T07:29:14.990Z,5.75
2019-01-17T07:29:50.410Z,5.69
2019-01-17T07:30:25.834Z,5.74
2019-01-17T07:31:01.313Z,5.75
2019-01-17T07:31:37.067Z,5.77
2019-01-17T07:32:12.884Z,5.75
2019-01-17T07:32:48.312Z,5.75
2019-01-17T07:33:24.181Z,5.71
2019-01-17T07:33:59.705Z,5.71
2019-01-17T07:34:35.755Z,5.68
2019-01-17T07:35:11.388Z,5.76
2019-01-17T07:35:46.833Z,5.67
2019-01-17T07:36:22.279Z,5.68
2019-01-17T07:36:57.955Z,5.68
2019-01-17T07:37:33.775Z,5.66
2019-01-17T07:38:09.388Z,5.69
2019-01-17T07:38:45.068Z,5.67
2019-01-17T07:39:20.506Z,5.63
2019-01-17T07:39:55.989Z,5.64
2019-01-17T07:40:31.491Z,5.70
2019-01-17T07:41:07.038Z,5.67
2019-01-17T07:41:42.791Z,5.62
2019-01-17T07:42:18.291Z,5.61
2019-01-17T07:42:54.291Z,5.67
2019-01-17T07:43:29.987Z,5.69
2019-01-17T07:44:05.467Z,5.64
2019-01-17T07:44:41.066Z,5.58
2019-01-17T07:45:22.295Z,5.67
2019-01-17T07:45:57.766Z,5.76
2019-01-17T07:46:33.742Z,5.76
2019-01-17T07:47:09.493Z,5.71
2019-01-17T07:47:45.170Z,5.69
2019-01-17T07:48:20.704Z,5.70
2019-01-17T07:48:56.567Z,5.67
2019-01-17T07:49:32.262Z,5.74
2019-01-17T07:50:08.419Z,5.68
2019-01-17T07:50:43.895Z,5.70
2019-01-17T07:51:19.370Z,5.77
2019-01-17T07:51:54.809Z,5.82
2019-01-17T07:52:30.410Z,5.82
2019-01-17T07:53:06.224Z,5.93
2019-01-17T07:53:41.746Z,5.80
2019-01-17T07:54:17.200Z,5.79
2019-01-17T07:54:52.620Z,5.88
2019-01-17T07:55:28.300Z,5.98
2019-01-17T07:56:03.994Z,5.95
2019-01-17T07:56:40.084Z,5.93
2019-01-17T07:57:15.818Z,5.88
2019-01-17T07:57:51.772Z,5.92
2019-01-17T07:58:27.453Z,5.83
2019-01-17T07:59:04.714Z,5.86
2019-01-17T07:59:40.218Z,5.86
2019-01-17T08:00:20.608Z,5.90
2019-01-17T08:00:56.074Z,5.85
2019-01-17T08:01:31.628Z,5.81
2019-01-17T08:02:07.151Z,5.80
2019-01-17T08:02:42.633Z,5.78
2019-01-17T08:03:18.393Z,5.87
2019-01-17T08:03:53.887Z,5.80
2019-01-17T08:04:29.324Z,5.74
2019-01-17T08:05:05.234Z,5.86
2019-01-17T08:05:40.718Z,5.90
2019-01-17T08:06:16.219Z,5.90
2019-01-17T08:06:56.680Z,5.83
2019-01-17T08:07:29.115Z,5.71
2019-01-17T08:08:05.036Z,5.66
2019-01-17T08:08:40.797Z,5.69
2019-01-17T08:09:16.250Z,5.68
2019-01-17T08:09:51.692Z,5.70
2019-01-17T08:10:27.146Z,5.71
2019-01-17T08:11:03.201Z,5.70
2019-01-17T08:11:39.008Z,5.73
2019-01-17T08:12:14.772Z,5.70
2019-01-17T08:12:50.210Z,5.75
2019-01-17T08:13:25.910Z,5.71
2019-01-17T08:14:01.732Z,5.84
2019-01-17T08:14:37.207Z,5.78
2019-01-17T08:15:13.006Z,5.72
2019-01-17T08:15:48.440Z,5.76
2019-01-17T08:16:23.888Z,5.72
2019-01-17T08:16:59.843Z,5.72
2019-01-17T08:17:35.294Z,5.78
2019-01-17T08:18:10.765Z,5.74
2019-01-17T08:18:46.477Z,5.89
2019-01-17T08:19:22.189Z,5.95
2019-01-17T08:19:58.103Z,5.90
2019-01-17T08:20:33.564Z,5.92
2019-01-17T08:21:09.044Z,5.95
2019-01-17T08:21:44.547Z,5.84
2019-01-17T08:22:19.994Z,5.86
2019-01-17T08:22:55.738Z,5.86
2019-01-17T08:23:34.776Z,5.89
2019-01-17T08:24:08.349Z,5.96
2019-01-17T08:24:44.596Z,6.01
2019-01-17T08:25:20.399Z,6.01
2019-01-17T08:25:56.101Z,5.90
2019-01-17T08:26:31.845Z,5.96
2019-01-17T08:27:07.503Z,5.89
2019-01-17T08:27:44.485Z,5.84
2019-01-17T08:28:20.022Z,5.83
2019-01-17T08:28:55.479Z,5.87
2019-01-17T08:29:31.213Z,5.93
2019-01-17T08:30:09.739Z,5.95
2019-01-17T08:30:45.283Z,5.96
2019-01-17T08:31:20.702Z,5.98
2019-01-17T08:31:56.162Z,5.90
2019-01-17T08:32:31.885Z,5.96
2019-01-17T08:33:07.375Z,6.02
2019-01-17T08:33:43.119Z,6.08
2019-01-17T08:34:18.844Z,6.08
2019-01-17T08:34:54.655Z,6.04
2019-01-17T08:35:30.101Z,5.98
2019-01-17T08:36:05.801Z,6.05
2019-01-17T08:36:41.357Z,6.04